Time;durP1;ratioP1;P1;durP2;ratioP2;P2;SDS_P1;SDS_P2;PMS_P1;PMS_P2;Temp;Humidity;BMP_temperature;BMP_pressure;BME280_temperature;BME280_humidity;BME280_pressure;Samples;Min_cycle;Max_cycle;Signal;HPM_P1;HPM_P2
2023/04/25 00:02:22;;;;;;;;;;;5.90;99.90;;;;;;5059871;28;19931;-91
2023/04/25 00:04:49;;;;;;;;;;;5.90;99.90;;;;;;5082348;28;19924;-90
2023/04/25 00:07:15;;;;;;;;;;;5.90;99.90;;;;;;5085602;28;19947;-93
2023/04/25 00:09:41;;;;;;;;;;;5.90;99.90;;;;;;5067779;28;19928;-90
2023/04/25 00:12:06;;;;;;;;;;;5.80;99.90;;;;;;5101192;28;20296;-91
2023/04/25 00:14:33;;;;;;;;;;;5.80;99.90;;;;;;5081448;28;20003;-91
2023/04/25 00:16:59;;;;;;;;;;;5.80;99.90;;;;;;5084164;28;20385;-91
2023/04/25 00:19:26;;;;;;;;;;;5.80;99.90;;;;;;5068576;28;19932;-91
2023/04/25 00:21:53;;;;;;;;;;;5.80;99.90;;;;;;5079534;28;20353;-91
2023/04/25 00:24:19;;;;;;;;;;;5.70;99.90;;;;;;5083113;28;19924;-91
2023/04/25 00:26:45;;;;;;;;;;;5.80;99.90;;;;;;5098162;28;19940;-91
2023/04/25 00:29:10;;;;;;;;;;;5.70;99.90;;;;;;5083926;28;19924;-90
2023/04/25 00:31:36;;;;;;;;;;;5.80;99.90;;;;;;5084995;28;19955;-91
2023/04/25 00:34:02;;;;;;;;;;;5.80;99.90;;;;;;5083082;28;19924;-91
2023/04/25 00:36:27;;;;;;;;;;;5.80;99.90;;;;;;5084516;28;20019;-91
2023/04/25 00:38:54;;;;;;;;;;;5.80;99.90;;;;;;5083595;28;20314;-91
2023/04/25 00:41:20;;;;;;;;;;;5.80;99.90;;;;;;5085263;28;19986;-91
2023/04/25 00:43:47;;;;;;;;;;;5.90;99.90;;;;;;5083991;28;19928;-91
2023/04/25 00:46:13;;;;;;;;;;;5.90;99.90;;;;;;5067031;28;19924;-90
2023/04/25 00:48:38;;;;;;;;;;;5.80;99.90;;;;;;5084506;28;19978;-91
2023/04/25 00:51:04;;;;;;;;;;;5.80;99.90;;;;;;5052794;28;19928;-92
2023/04/25 00:53:30;;;;;;;;;;;5.80;99.90;;;;;;5085160;28;19982;-90
2023/04/25 00:55:55;;;;;;;;;;;5.80;99.90;;;;;;5083021;28;19924;-91
2023/04/25 00:58:21;;;;;;;;;;;5.70;99.90;;;;;;5085296;28;19924;-90
2023/04/25 01:00:48;;;;;;;;;;;5.70;99.90;;;;;;5083291;28;19924;-91
2023/04/25 01:03:15;;;;;;;;;;;5.60;99.90;;;;;;5083607;28;19983;-90
2023/04/25 01:05:42;;;;;;;;;;;5.60;99.90;;;;;;5084725;28;19924;-90
2023/04/25 01:08:07;;;;;;;;;;;5.50;99.90;;;;;;5083282;28;19935;-91
2023/04/25 01:10:33;;;;;;;;;;;5.50;99.90;;;;;;5079782;28;19925;-92
2023/04/25 01:12:59;;;;;;;;;;;5.50;99.90;;;;;;5076163;28;20015;-90
2023/04/25 01:15:24;;;;;;;;;;;5.40;99.90;;;;;;5072233;28;19925;-93
2023/04/25 01:17:50;;;;;;;;;;;5.40;99.90;;;;;;5078756;28;19950;-90
2023/04/25 01:20:16;;;;;;;;;;;5.40;99.90;;;;;;5079579;28;19932;-91
2023/04/25 01:22:42;;;;;;;;;;;5.30;99.90;;;;;;5078058;28;20265;-91
2023/04/25 01:25:09;;;;;;;;;;;5.30;99.90;;;;;;5061428;28;19924;-91
2023/04/25 01:27:35;;;;;;;;;;;5.30;99.90;;;;;;5057684;28;19929;-90
2023/04/25 01:30:01;;;;;;;;;;;5.30;99.90;;;;;;5061047;28;19964;-91
2023/04/25 01:32:27;;;;;;;;;;;5.30;99.90;;;;;;5063240;28;19929;-91
2023/04/25 01:34:52;;;;;;;;;;;5.30;99.90;;;;;;5061850;28;20346;-90
2023/04/25 01:37:18;;;;;;;;;;;5.20;99.90;;;;;;5079534;28;19925;-91
2023/04/25 01:39:44;;;;;;;;;;;5.20;99.90;;;;;;5063215;28;19925;-90
2023/04/25 01:42:09;;;;;;;;;;;5.20;99.90;;;;;;5078089;28;19921;-90
2023/04/25 01:44:35;;;;;;;;;;;5.10;99.90;;;;;;5079244;28;20008;-91
2023/04/25 01:47:00;;;;;;;;;;;5.10;99.90;;;;;;5061435;28;20349;-91
2023/04/25 01:49:26;;;;;;;;;;;5.10;99.90;;;;;;5062605;28;19931;-92
2023/04/25 01:51:52;;;;;;;;;;;5.10;99.90;;;;;;5077890;28;19925;-90
2023/04/25 01:54:18;;;;;;;;;;;5.10;99.90;;;;;;5079662;28;20344;-91
2023/04/25 01:56:49;;;;;;;;;;;5.00;99.90;;;;;;5062210;28;19932;-91
2023/04/25 01:59:15;;;;;;;;;;;5.00;99.90;;;;;;5061047;28;19982;-91
2023/04/25 02:01:40;;;;;;;;;;;5.00;99.90;;;;;;5062600;28;19925;-91
2023/04/25 02:04:06;;;;;;;;;;;5.00;99.90;;;;;;5060365;28;20036;-91
2023/04/25 02:06:32;;;;;;;;;;;4.90;99.90;;;;;;5079542;28;19924;-91
2023/04/25 02:08:57;;;;;;;;;;;4.90;99.90;;;;;;5053835;28;19925;-89
2023/04/25 02:11:23;;;;;;;;;;;4.90;99.90;;;;;;5043989;28;20244;-90
2023/04/25 02:13:48;;;;;;;;;;;4.90;99.90;;;;;;5065430;28;19932;-90
2023/04/25 02:16:14;;;;;;;;;;;4.90;99.90;;;;;;5063828;28;20168;-90
2023/04/25 02:18:40;;;;;;;;;;;4.80;99.90;;;;;;5081097;28;19924;-90
2023/04/25 02:21:05;;;;;;;;;;;4.80;99.90;;;;;;5079760;28;19933;-91
2023/04/25 02:23:31;;;;;;;;;;;4.80;99.90;;;;;;5046322;28;19931;-90
2023/04/25 02:25:57;;;;;;;;;;;4.80;99.90;;;;;;5079620;28;19932;-90
2023/04/25 02:28:23;;;;;;;;;;;4.70;99.90;;;;;;5063956;28;19988;-91
2023/04/25 02:30:49;;;;;;;;;;;4.70;99.90;;;;;;5080531;28;20383;-91
2023/04/25 02:33:16;;;;;;;;;;;4.80;99.90;;;;;;5063933;28;19924;-90
2023/04/25 02:35:42;;;;;;;;;;;4.80;99.90;;;;;;5065877;28;19932;-90
2023/04/25 02:38:07;;;;;;;;;;;4.70;99.90;;;;;;5062948;28;19924;-90
2023/04/25 02:40:33;;;;;;;;;;;4.80;99.90;;;;;;5082379;28;19935;-90
2023/04/25 02:42:59;;;;;;;;;;;4.80;99.90;;;;;;5059866;28;19946;-91
2023/04/25 02:45:24;;;;;;;;;;;4.90;99.90;;;;;;5081381;28;19950;-90
2023/04/25 02:47:52;;;;;;;;;;;4.90;99.90;;;;;;5070296;28;23069;-89
2023/04/25 02:50:18;;;;;;;;;;;4.90;99.90;;;;;;5063200;28;19931;-91
2023/04/25 02:52:44;;;;;;;;;;;6.30;99.90;;;;;;5063139;28;19925;-90
2023/04/25 02:55:10;;;;;;;;;;;4.90;99.90;;;;;;5055185;28;19925;-90
2023/04/25 02:57:36;;;;;;;;;;;4.90;99.90;;;;;;5065150;28;19964;-90
2023/04/25 03:00:01;;;;;;;;;;;4.90;99.90;;;;;;5054609;28;19955;-90
2023/04/25 03:02:27;;;;;;;;;;;4.80;99.90;;;;;;5064907;28;19972;-90
2023/04/25 03:04:53;;;;;;;;;;;4.90;99.90;;;;;;5080014;28;20642;-90
2023/04/25 03:07:19;;;;;;;;;;;4.90;99.90;;;;;;5072576;28;19932;-91
2023/04/25 03:09:44;;;;;;;;;;;4.80;99.90;;;;;;5081022;28;19929;-90
2023/04/25 03:12:10;;;;;;;;;;;4.90;99.90;;;;;;5063747;28;19974;-90
2023/04/25 03:14:36;;;;;;;;;;;4.80;99.90;;;;;;5084696;28;19976;-89
2023/04/25 03:17:01;;;;;;;;;;;5.60;99.90;;;;;;5065162;28;19925;-89
2023/04/25 03:19:27;;;;;;;;;;;4.80;99.90;;;;;;5064331;28;19953;-90
2023/04/25 03:21:53;;;;;;;;;;;4.80;99.90;;;;;;5072611;28;19931;-91
2023/04/25 03:24:19;;;;;;;;;;;4.70;99.90;;;;;;5056121;28;19986;-90
2023/04/25 03:26:45;;;;;;;;;;;4.70;99.90;;;;;;5076089;28;19928;-89
2023/04/25 03:29:11;;;;;;;;;;;4.60;99.90;;;;;;5061949;28;20003;-90
2023/04/25 03:31:37;;;;;;;;;;;4.50;99.90;;;;;;5080625;28;19924;-90
2023/04/25 03:34:02;;;;;;;;;;;4.50;99.90;;;;;;5076877;28;19969;-91
2023/04/25 03:36:28;;;;;;;;;;;4.40;99.90;;;;;;5053625;28;19925;-89
2023/04/25 03:38:53;;;;;;;;;;;4.30;99.90;;;;;;5079350;28;19929;-90
2023/04/25 03:41:19;;;;;;;;;;;4.20;99.90;;;;;;5067856;28;19986;-90
2023/04/25 03:43:45;;;;;;;;;;;4.10;99.90;;;;;;5062739;28;20019;-89
2023/04/25 03:46:11;;;;;;;;;;;4.00;99.90;;;;;;5065941;28;19950;-90
2023/04/25 03:48:36;;;;;;;;;;;3.90;99.90;;;;;;5080524;28;20059;-89
2023/04/25 03:51:02;;;;;;;;;;;3.70;99.90;;;;;;5079460;28;19971;-89
2023/04/25 03:53:28;;;;;;;;;;;3.60;99.90;;;;;;5084340;28;19925;-90
2023/04/25 03:55:53;;;;;;;;;;;3.50;99.90;;;;;;5081046;28;20349;-90
2023/04/25 03:58:19;;;;;;;;;;;3.40;99.90;;;;;;5081539;28;19955;-90
2023/04/25 04:00:45;;;;;;;;;;;3.40;99.90;;;;;;5081368;28;19928;-89
2023/04/25 04:03:10;;;;;;;;;;;3.30;99.90;;;;;;5062666;28;19924;-90
2023/04/25 04:05:37;;;;;;;;;;;3.30;99.90;;;;;;5082336;28;19928;-90
2023/04/25 04:08:02;;;;;;;;;;;3.20;99.90;;;;;;5081297;28;19924;-90
2023/04/25 04:10:28;;;;;;;;;;;3.10;99.90;;;;;;5083929;28;19924;-89
2023/04/25 04:12:53;;;;;;;;;;;3.10;99.90;;;;;;5063850;28;19931;-90
2023/04/25 04:15:19;;;;;;;;;;;3.00;99.90;;;;;;5083654;28;19925;-90
2023/04/25 04:17:46;;;;;;;;;;;2.90;99.90;;;;;;5077240;28;20318;-89
2023/04/25 04:20:12;;;;;;;;;;;2.80;99.90;;;;;;5067171;28;20269;-90
2023/04/25 04:22:38;;;;;;;;;;;2.70;99.90;;;;;;5082900;28;19932;-88
2023/04/25 04:25:05;;;;;;;;;;;2.70;99.90;;;;;;5081165;28;19928;-89
2023/04/25 04:27:31;;;;;;;;;;;2.60;99.90;;;;;;5084032;28;20373;-90
2023/04/25 04:29:57;;;;;;;;;;;2.60;99.90;;;;;;5080246;28;19925;-90
2023/04/25 04:32:23;;;;;;;;;;;2.60;99.90;;;;;;5075264;28;19935;-91
2023/04/25 04:34:49;;;;;;;;;;;2.60;99.90;;;;;;5084361;28;19931;-90
2023/04/25 04:37:14;;;;;;;;;;;2.70;99.90;;;;;;5084676;28;20436;-91
2023/04/25 04:39:40;;;;;;;;;;;2.60;99.90;;;;;;5082468;28;19928;-89
2023/04/25 04:42:06;;;;;;;;;;;2.60;99.90;;;;;;5065286;28;19928;-90
2023/04/25 04:44:32;;;;;;;;;;;2.60;99.90;;;;;;5082542;28;19931;-91
2023/04/25 04:46:58;;;;;;;;;;;2.60;99.90;;;;;;5080486;28;19924;-90
2023/04/25 04:49:24;;;;;;;;;;;2.60;99.90;;;;;;5065662;28;19931;-90
2023/04/25 04:51:49;;;;;;;;;;;2.60;99.90;;;;;;5079950;28;19932;-90
2023/04/25 04:54:15;;;;;;;;;;;2.60;99.90;;;;;;5082615;28;20049;-90
2023/04/25 04:56:41;;;;;;;;;;;2.60;99.90;;;;;;5081608;28;19924;-90
2023/04/25 04:59:07;;;;;;;;;;;2.70;99.90;;;;;;5082103;28;19982;-90
2023/04/25 05:01:35;;;;;;;;;;;2.70;99.90;;;;;;5082574;28;19924;-89
2023/04/25 05:04:00;;;;;;;;;;;2.70;99.90;;;;;;5046975;28;19924;-89
2023/04/25 05:06:28;;;;;;;;;;;2.70;99.90;;;;;;5061917;28;19924;-90
2023/04/25 05:08:54;;;;;;;;;;;2.80;99.90;;;;;;5078663;28;19990;-89
2023/04/25 05:11:20;;;;;;;;;;;2.80;99.90;;;;;;5082952;28;19924;-90
2023/04/25 05:13:46;;;;;;;;;;;2.90;99.90;;;;;;5063652;28;19964;-89
2023/04/25 05:16:12;;;;;;;;;;;3.10;99.90;;;;;;5051733;28;19924;-90
2023/04/25 05:18:38;;;;;;;;;;;3.10;99.90;;;;;;5079940;28;20393;-89
2023/04/25 05:21:04;;;;;;;;;;;3.20;99.90;;;;;;5078281;28;19935;-90
2023/04/25 05:23:30;;;;;;;;;;;3.40;99.90;;;;;;5073624;28;19924;-90
2023/04/25 05:25:56;;;;;;;;;;;3.50;99.90;;;;;;5091728;28;19924;-90
2023/04/25 05:28:21;;;;;;;;;;;3.70;99.90;;;;;;5094939;28;19969;-91
2023/04/25 05:30:47;;;;;;;;;;;3.70;99.90;;;;;;5092293;28;19924;-88
2023/04/25 05:33:13;;;;;;;;;;;3.60;99.90;;;;;;5078476;28;19925;-90
2023/04/25 05:35:39;;;;;;;;;;;3.60;99.90;;;;;;5050613;28;19955;-90
2023/04/25 05:38:04;;;;;;;;;;;3.50;99.90;;;;;;5079957;28;19924;-88
2023/04/25 05:40:30;;;;;;;;;;;3.50;99.90;;;;;;5058914;28;20295;-88
2023/04/25 05:42:55;;;;;;;;;;;3.50;99.90;;;;;;5061689;28;19980;-87
2023/04/25 05:45:21;;;;;;;;;;;3.50;99.90;;;;;;5083045;28;19924;-87
2023/04/25 05:47:47;;;;;;;;;;;3.50;99.90;;;;;;5081113;28;19939;-88
2023/04/25 05:50:12;;;;;;;;;;;3.60;99.90;;;;;;5074220;28;19924;-88
2023/04/25 05:52:38;;;;;;;;;;;3.70;99.90;;;;;;5100894;28;19931;-88
2023/04/25 05:55:04;;;;;;;;;;;3.80;99.90;;;;;;5083278;28;20291;-88
2023/04/25 05:57:30;;;;;;;;;;;4.00;99.90;;;;;;5084829;28;20057;-88
2023/04/25 05:59:55;;;;;;;;;;;4.10;99.90;;;;;;5074866;28;19924;-89
2023/04/25 06:02:21;;;;;;;;;;;4.30;99.90;;;;;;5082986;28;19924;-88
2023/04/25 06:04:47;;;;;;;;;;;4.50;99.90;;;;;;5091116;28;20405;-88
2023/04/25 06:07:13;;;;;;;;;;;4.70;99.90;;;;;;5084931;28;19924;-87
2023/04/25 06:09:39;;;;;;;;;;;4.80;99.90;;;;;;5066573;28;20070;-87
2023/04/25 06:12:05;;;;;;;;;;;4.80;99.90;;;;;;5083505;28;19928;-88
2023/04/25 06:14:31;;;;;;;;;;;6.80;99.90;;;;;;5083540;28;19967;-88
2023/04/25 06:16:57;;;;;;;;;;;4.90;99.90;;;;;;5081867;28;19924;-88
2023/04/25 06:19:22;;;;;;;;;;;5.00;99.90;;;;;;5083144;28;19924;-89
2023/04/25 06:21:48;;;;;;;;;;;5.00;99.90;;;;;;5081612;28;19931;-88
2023/04/25 06:24:14;;;;;;;;;;;5.10;99.90;;;;;;5084884;28;19935;-88
2023/04/25 06:26:39;;;;;;;;;;;5.20;99.90;;;;;;5082182;28;19963;-88
2023/04/25 06:29:05;;;;;;;;;;;5.40;99.90;;;;;;5080299;28;19960;-88
2023/04/25 06:31:32;;;;;;;;;;;5.50;99.90;;;;;;5075693;28;20576;-87
2023/04/25 06:33:58;;;;;;;;;;;5.80;99.90;;;;;;5063539;28;19924;-87
2023/04/25 06:36:25;;;;;;;;;;;6.10;99.90;;;;;;5069890;28;19932;-88
2023/04/25 06:38:52;;;;;;;;;;;6.30;99.90;;;;;;5067559;28;19924;-88
2023/04/25 06:41:17;;;;;;;;;;;6.40;99.90;;;;;;5099323;28;20001;-88
2023/04/25 06:43:43;;;;;;;;;;;6.50;99.90;;;;;;5080283;28;19924;-89
2023/04/25 06:46:09;;;;;;;;;;;6.60;99.90;;;;;;5074687;28;19924;-89
2023/04/25 06:48:34;;;;;;;;;;;6.60;99.90;;;;;;5100319;28;20007;-88
2023/04/25 06:51:00;;;;;;;;;;;6.70;99.90;;;;;;5081898;28;19924;-88
2023/04/25 06:53:26;;;;;;;;;;;6.80;99.90;;;;;;5084313;28;19924;-88
2023/04/25 06:55:51;;;;;;;;;;;6.90;99.90;;;;;;5081413;28;19964;-90
2023/04/25 06:58:17;;;;;;;;;;;6.80;99.90;;;;;;5084582;28;20329;-88
2023/04/25 07:00:43;;;;;;;;;;;6.60;99.90;;;;;;5093546;28;19925;-88
2023/04/25 07:03:08;;;;;;;;;;;6.60;99.90;;;;;;5083701;28;19954;-88
2023/04/25 07:05:34;;;;;;;;;;;6.50;99.90;;;;;;5065334;28;19931;-86
2023/04/25 07:08:00;;;;;;;;;;;6.50;99.90;;;;;;5090423;28;19935;-88
2023/04/25 07:10:25;;;;;;;;;;;6.50;99.90;;;;;;5067434;28;20280;-87
2023/04/25 07:12:51;;;;;;;;;;;6.40;99.90;;;;;;5064390;28;19978;-89
2023/04/25 07:15:18;;;;;;;;;;;6.50;99.90;;;;;;5087570;28;19924;-88
2023/04/25 07:17:43;;;;;;;;;;;6.60;99.90;;;;;;5077120;28;19928;-88
2023/04/25 07:20:10;;;;;;;;;;;6.80;99.90;;;;;;5071725;28;19935;-88
2023/04/25 07:22:35;;;;;;;;;;;6.90;99.90;;;;;;5085658;28;19928;-88
2023/04/25 07:25:01;;;;;;;;;;;7.10;99.90;;;;;;5070365;28;20010;-88
2023/04/25 07:27:26;;;;;;;;;;;7.10;99.90;;;;;;5057769;28;19931;-88
2023/04/25 07:29:52;;;;;;;;;;;7.20;99.90;;;;;;5068295;28;19924;-89
2023/04/25 07:32:18;;;;;;;;;;;7.20;99.90;;;;;;5087941;28;19953;-88
2023/04/25 07:34:44;;;;;;;;;;;7.30;99.90;;;;;;5083911;28;19931;-88
2023/04/25 07:37:10;;;;;;;;;;;7.40;99.90;;;;;;5087897;28;19929;-89
2023/04/25 07:39:36;;;;;;;;;;;7.40;99.90;;;;;;5085120;28;19977;-88
2023/04/25 07:42:03;;;;;;;;;;;7.50;99.90;;;;;;5062988;28;19924;-88
2023/04/25 07:44:30;;;;;;;;;;;6.80;99.90;;;;;;5085440;28;19924;-87
2023/04/25 07:46:56;;;;;;;;;;;7.60;99.90;;;;;;5085299;28;19924;-88
2023/04/25 07:49:21;;;;;;;;;;;7.70;99.90;;;;;;5086588;28;19989;-88
2023/04/25 07:51:47;;;;;;;;;;;7.80;99.90;;;;;;5084737;28;19924;-88
2023/04/25 07:54:13;;;;;;;;;;;7.80;99.90;;;;;;5070780;28;19928;-88
2023/04/25 07:56:39;;;;;;;;;;;7.80;99.90;;;;;;5084079;28;20011;-88
2023/04/25 07:59:05;;;;;;;;;;;7.70;99.90;;;;;;5087229;28;19927;-89
2023/04/25 08:01:30;;;;;;;;;;;7.50;99.90;;;;;;5084829;28;19931;-88
2023/04/25 08:03:56;;;;;;;;;;;7.40;99.90;;;;;;5067870;28;19954;-88
2023/04/25 08:06:21;;;;;;;;;;;7.30;99.90;;;;;;5087155;28;19959;-88
2023/04/25 08:08:47;;;;;;;;;;;7.10;99.90;;;;;;5102145;28;19931;-89
2023/04/25 08:11:12;;;;;;;;;;;7.20;99.90;;;;;;5087251;28;19924;-88
2023/04/25 08:13:38;;;;;;;;;;;7.40;99.90;;;;;;5083248;28;19979;-87
2023/04/25 08:16:04;;;;;;;;;;;7.60;99.90;;;;;;5071048;28;19931;-89
2023/04/25 08:18:30;;;;;;;;;;;7.80;99.90;;;;;;5043885;28;19970;-88
2023/04/25 08:20:56;;;;;;;;;;;7.90;99.90;;;;;;5063129;28;19960;-88
2023/04/25 08:23:22;;;;;;;;;;;7.90;99.90;;;;;;5070060;28;19932;-87
2023/04/25 08:25:47;;;;;;;;;;;7.70;99.90;;;;;;5063431;28;19925;-88
2023/04/25 08:28:14;;;;;;;;;;;7.20;99.90;;;;;;5080657;28;19924;-87
2023/04/25 08:30:40;;;;;;;;;;;6.80;99.90;;;;;;5076392;28;19936;-88
2023/04/25 08:33:06;;;;;;;;;;;6.50;99.90;;;;;;5058110;28;19924;-88
2023/04/25 08:35:33;;;;;;;;;;;6.30;99.90;;;;;;5077362;28;19956;-87
2023/04/25 08:37:58;;;;;;;;;;;6.20;99.90;;;;;;5079501;28;19925;-88
2023/04/25 08:40:28;;;;;;;;;;;6.30;99.90;;;;;;5061087;28;19932;-88
2023/04/25 08:42:55;;;;;;;;;;;6.60;99.90;;;;;;5040306;28;20345;-88
2023/04/25 08:45:21;;;;;;;;;;;6.90;99.90;;;;;;5062527;28;19936;-88
2023/04/25 08:47:48;;;;;;;;;;;7.20;99.90;;;;;;5059053;28;19924;-88
2023/04/25 08:50:14;;;;;;;;;;;7.30;99.90;;;;;;5062982;28;19988;-88
2023/04/25 08:52:43;;;;;;;;;;;9.60;99.90;;;;;;5076823;28;19932;-88
2023/04/25 08:55:09;;;;;;;;;;;7.20;99.90;;;;;;5078849;28;19979;-88
2023/04/25 08:57:35;;;;;;;;;;;7.20;99.90;;;;;;5061754;28;19935;-87
2023/04/25 09:00:01;;;;;;;;;;;7.20;99.90;;;;;;5060126;28;19932;-88
2023/04/25 09:02:27;;;;;;;;;;;7.30;99.90;;;;;;5078588;28;20355;-88
2023/04/25 09:04:54;;;;;;;;;;;7.30;99.90;;;;;;5076513;28;19925;-88
2023/04/25 09:07:21;;;;;;;;;;;7.30;99.90;;;;;;5079651;28;19925;-87
2023/04/25 09:09:47;;;;;;;;;;;7.20;99.90;;;;;;5059508;28;20011;-87
2023/04/25 09:12:13;;;;;;;;;;;7.00;99.90;;;;;;5079291;28;19925;-87
2023/04/25 09:14:38;;;;;;;;;;;7.00;99.90;;;;;;5060336;28;19929;-87
2023/04/25 09:17:04;;;;;;;;;;;7.10;99.90;;;;;;5058094;28;20181;-88
2023/04/25 09:19:35;;;;;;;;;;;8.10;99.90;;;;;;5044792;28;19947;-87
2023/04/25 09:22:02;;;;;;;;;;;7.50;99.90;;;;;;5075905;28;20400;-88
2023/04/25 09:24:37;;;;;;;;;;;7.60;99.90;;;;;;5078853;28;19964;-87
2023/04/25 09:27:03;;;;;;;;;;;7.80;99.90;;;;;;5076578;28;19924;-88
2023/04/25 09:29:33;;;;;;;;;;;7.90;99.90;;;;;;5078021;28;19925;-88
2023/04/25 09:32:12;;;;;;;;;;;8.10;99.90;;;;;;5062000;28;19924;-87
2023/04/25 09:34:42;;;;;;;;;;;8.30;99.90;;;;;;5058665;28;19931;-88
2023/04/25 09:37:09;;;;;;;;;;;8.70;99.90;;;;;;5079026;28;20295;-88
2023/04/25 09:39:34;;;;;;;;;;;9.00;99.90;;;;;;5065289;28;19941;-88
2023/04/25 09:42:00;;;;;;;;;;;9.30;99.90;;;;;;5069625;28;19925;-89
2023/04/25 09:44:26;;;;;;;;;;;9.10;99.90;;;;;;5044054;28;19925;-88
2023/04/25 09:46:53;;;;;;;;;;;8.80;99.90;;;;;;5060961;28;19925;-88
2023/04/25 09:49:21;;;;;;;;;;;8.50;99.90;;;;;;5077417;28;20011;-88
2023/04/25 09:51:57;;;;;;;;;;;8.20;99.90;;;;;;5060424;28;19925;-88
2023/04/25 09:54:23;;;;;;;;;;;8.10;99.90;;;;;;5055408;28;19979;-88
2023/04/25 09:56:51;;;;;;;;;;;8.10;99.90;;;;;;5060086;28;19924;-88
2023/04/25 09:59:18;;;;;;;;;;;8.30;99.90;;;;;;5062944;28;19975;-89
2023/04/25 10:01:44;;;;;;;;;;;8.50;99.90;;;;;;5059709;28;19978;-88
2023/04/25 10:04:15;;;;;;;;;;;8.40;99.90;;;;;;5059678;28;19929;-87
2023/04/25 10:06:42;;;;;;;;;;;8.60;99.90;;;;;;5061552;28;19932;-88
2023/04/25 10:09:08;;;;;;;;;;;8.80;99.90;;;;;;5058175;28;19925;-88
2023/04/25 10:11:35;;;;;;;;;;;9.00;99.90;;;;;;5061813;28;19925;-89
2023/04/25 10:14:01;;;;;;;;;;;9.10;99.90;;;;;;5041332;28;19924;-89
2023/04/25 10:16:27;;;;;;;;;;;9.20;99.90;;;;;;5059494;28;19925;-88
2023/04/25 10:18:53;;;;;;;;;;;9.40;99.90;;;;;;5034959;28;19925;-87
2023/04/25 10:21:19;;;;;;;;;;;9.60;99.90;;;;;;5052267;28;19978;-88
2023/04/25 10:23:45;;;;;;;;;;;9.90;99.90;;;;;;5051616;28;19993;-88
2023/04/25 10:26:12;;;;;;;;;;;10.20;99.90;;;;;;5034875;28;19925;-89
2023/04/25 10:28:57;;;;;;;;;;;10.30;99.90;;;;;;5059904;28;19924;-89
2023/04/25 10:31:23;;;;;;;;;;;10.10;99.90;;;;;;5056171;28;19963;-88
2023/04/25 10:33:49;;;;;;;;;;;9.80;99.90;;;;;;5052459;28;19975;-89
2023/04/25 10:36:14;;;;;;;;;;;9.50;99.90;;;;;;5049111;28;19926;-88
2023/04/25 10:38:42;;;;;;;;;;;9.30;99.90;;;;;;5057281;28;19943;-88
2023/04/25 10:41:08;;;;;;;;;;;9.10;99.90;;;;;;5070818;28;19931;-89
2023/04/25 10:43:38;;;;;;;;;;;9.20;99.90;;;;;;5057146;28;20468;-88
2023/04/25 10:46:13;;;;;;;;;;;9.50;99.90;;;;;;5057548;28;20233;-88
2023/04/25 10:48:43;;;;;;;;;;;9.80;99.90;;;;;;5037703;28;19989;-88
2023/04/25 10:51:09;;;;;;;;;;;10.00;99.90;;;;;;5077299;28;19962;-89
2023/04/25 10:53:35;;;;;;;;;;;10.10;99.90;;;;;;5053715;28;19971;-88
2023/04/25 10:56:09;;;;;;;;;;;10.50;99.90;;;;;;5050882;28;19996;-88
2023/04/25 10:58:34;;;;;;;;;;;10.10;99.90;;;;;;5068542;28;19924;-88
2023/04/25 11:01:01;;;;;;;;;;;9.60;99.90;;;;;;5045879;28;19992;-88
2023/04/25 11:03:26;;;;;;;;;;;9.20;99.90;;;;;;5058717;28;19925;-88
2023/04/25 11:05:53;;;;;;;;;;;9.00;99.90;;;;;;5052752;28;19924;-88
2023/04/25 11:08:24;;;;;;;;;;;9.20;99.90;;;;;;5053552;28;19925;-88
2023/04/25 11:10:50;;;;;;;;;;;9.10;99.90;;;;;;5059687;28;19947;-88
2023/04/25 11:13:16;;;;;;;;;;;9.10;99.90;;;;;;5055892;28;19925;-88
2023/04/25 11:15:42;;;;;;;;;;;8.90;99.90;;;;;;5051605;28;19980;-89
2023/04/25 11:18:08;;;;;;;;;;;9.10;99.90;;;;;;5053566;28;19931;-89
2023/04/25 11:20:33;;;;;;;;;;;9.40;99.90;;;;;;5050466;28;20283;-87
2023/04/25 11:22:59;;;;;;;;;;;9.60;99.90;;;;;;5081045;28;19924;-89
2023/04/25 11:25:25;;;;;;;;;;;9.90;99.90;;;;;;5083515;28;19935;-88
2023/04/25 11:27:51;;;;;;;;;;;10.00;99.90;;;;;;5083023;28;19924;-87
2023/04/25 11:30:17;;;;;;;;;;;10.20;99.90;;;;;;5055868;28;21123;-89
2023/04/25 11:32:43;;;;;;;;;;;10.50;99.90;;;;;;5101380;28;20033;-88
2023/04/25 11:35:09;;;;;;;;;;;10.60;99.90;;;;;;5080592;28;19925;-89
2023/04/25 11:37:36;;;;;;;;;;;10.70;99.90;;;;;;5084121;28;20361;-88
2023/04/25 11:40:03;;;;;;;;;;;10.80;99.90;;;;;;5060389;28;19924;-88
2023/04/25 11:42:29;;;;;;;;;;;11.00;99.90;;;;;;5095808;28;19924;-88
2023/04/25 11:44:55;;;;;;;;;;;11.00;99.90;;;;;;5077061;28;19935;-87
2023/04/25 11:47:27;;;;;;;;;;;11.00;99.90;;;;;;5064744;28;20291;-90
2023/04/25 11:49:53;;;;;;;;;;;11.20;99.90;;;;;;5064383;28;19931;-89
2023/04/25 11:52:19;;;;;;;;;;;11.30;99.90;;;;;;5080591;28;19924;-89
2023/04/25 11:54:45;;;;;;;;;;;11.10;99.90;;;;;;5083601;28;19928;-88
2023/04/25 11:57:11;;;;;;;;;;;11.10;99.90;;;;;;5080739;28;19931;-87
2023/04/25 11:59:37;;;;;;;;;;;11.20;99.90;;;;;;5067695;28;19946;-88
2023/04/25 12:02:02;;;;;;;;;;;11.10;99.90;;;;;;5049462;28;20015;-87
2023/04/25 12:04:30;;;;;;;;;;;11.00;99.90;;;;;;5084508;28;20627;-88
2023/04/25 12:06:55;;;;;;;;;;;11.00;99.90;;;;;;5087297;28;19935;-89
2023/04/25 12:09:27;;;;;;;;;;;11.00;99.90;;;;;;5083810;28;19924;-87
2023/04/25 12:11:54;;;;;;;;;;;11.10;99.90;;;;;;5105682;28;19931;-88
2023/04/25 12:14:24;;;;;;;;;;;11.10;99.90;;;;;;5090116;28;19930;-87
2023/04/25 12:16:51;;;;;;;;;;;11.20;99.90;;;;;;5096090;28;19924;-87
2023/04/25 12:19:17;;;;;;;;;;;11.10;99.90;;;;;;5086766;28;19924;-87
2023/04/25 12:21:43;;;;;;;;;;;10.80;99.90;;;;;;5085150;28;19976;-89
2023/04/25 12:24:11;;;;;;;;;;;10.70;99.90;;;;;;5070339;28;20287;-90
2023/04/25 12:26:53;;;;;;;;;;;10.60;99.90;;;;;;5081159;28;19931;-88
2023/04/25 12:29:22;;;;;;;;;;;10.60;99.90;;;;;;5086667;28;20283;-88
2023/04/25 12:31:49;;;;;;;;;;;10.50;99.90;;;;;;5084279;28;20391;-88
2023/04/25 12:34:15;;;;;;;;;;;10.40;99.90;;;;;;5084971;28;19932;-88
2023/04/25 12:36:40;;;;;;;;;;;10.20;99.90;;;;;;5069790;28;19931;-88
2023/04/25 12:39:06;;;;;;;;;;;10.00;99.90;;;;;;5084026;28;20441;-88
2023/04/25 12:41:32;;;;;;;;;;;9.90;99.90;;;;;;5086248;28;19924;-88
2023/04/25 12:43:58;;;;;;;;;;;10.00;99.90;;;;;;5065941;28;19923;-87
2023/04/25 12:46:24;;;;;;;;;;;10.00;99.90;;;;;;5084544;28;19946;-87
2023/04/25 12:48:49;;;;;;;;;;;10.10;99.90;;;;;;5075187;28;19924;-88
2023/04/25 12:51:15;;;;;;;;;;;10.10;99.90;;;;;;5069980;28;19928;-88
2023/04/25 12:53:41;;;;;;;;;;;10.10;99.90;;;;;;5081026;28;20380;-87
2023/04/25 12:56:07;;;;;;;;;;;10.00;99.90;;;;;;5066982;28;19924;-88
2023/04/25 12:58:33;;;;;;;;;;;10.10;99.90;;;;;;5063750;28;20034;-88
2023/04/25 13:00:59;;;;;;;;;;;10.20;99.90;;;;;;5082254;28;20003;-88
2023/04/25 13:03:25;;;;;;;;;;;10.30;99.90;;;;;;5068625;28;19951;-88
2023/04/25 13:05:52;;;;;;;;;;;10.70;99.90;;;;;;5074587;28;20276;-87
2023/04/25 13:08:20;;;;;;;;;;;10.90;97.50;;;;;;5104345;28;19923;-88
2023/04/25 13:10:47;;;;;;;;;;;10.60;99.10;;;;;;5083922;28;20257;-88
2023/04/25 13:13:13;;;;;;;;;;;10.30;99.90;;;;;;5067223;28;19963;-89
2023/04/25 13:15:38;;;;;;;;;;;10.10;99.90;;;;;;5058922;28;19932;-87
2023/04/25 13:18:07;;;;;;;;;;;10.00;99.90;;;;;;5100232;28;19924;-87
2023/04/25 13:20:33;;;;;;;;;;;9.90;99.90;;;;;;5086514;28;19924;-88
2023/04/25 13:22:58;;;;;;;;;;;9.90;99.90;;;;;;5081943;28;20010;-88
2023/04/25 13:25:24;;;;;;;;;;;9.90;99.90;;;;;;5085565;28;20061;-87
2023/04/25 13:27:50;;;;;;;;;;;9.70;99.90;;;;;;5083513;28;19925;-88
2023/04/25 13:30:15;;;;;;;;;;;9.60;99.90;;;;;;5084267;28;19924;-88
2023/04/25 13:32:41;;;;;;;;;;;9.30;99.90;;;;;;5088701;28;19939;-86
2023/04/25 13:35:08;;;;;;;;;;;9.20;99.90;;;;;;5089901;28;19920;-88
2023/04/25 13:37:34;;;;;;;;;;;9.50;99.90;;;;;;5104496;28;20014;-87
2023/04/25 13:40:00;;;;;;;;;;;9.90;99.90;;;;;;5081888;28;19931;-88
2023/04/25 13:42:26;;;;;;;;;;;10.10;99.90;;;;;;5090585;28;19935;-87
2023/04/25 13:44:51;;;;;;;;;;;10.20;99.90;;;;;;5081542;28;19924;-88
2023/04/25 13:47:17;;;;;;;;;;;10.30;99.90;;;;;;5102935;28;19959;-87
2023/04/25 13:49:43;;;;;;;;;;;10.50;99.90;;;;;;5083726;28;19924;-87
2023/04/25 13:52:11;;;;;;;;;;;10.30;99.90;;;;;;5079714;28;19947;-87
2023/04/25 13:54:36;;;;;;;;;;;10.20;99.90;;;;;;5078144;28;19924;-87
2023/04/25 13:57:02;;;;;;;;;;;10.30;99.90;;;;;;5061442;28;19975;-88
2023/04/25 13:59:28;;;;;;;;;;;10.40;99.90;;;;;;5084462;28;19924;-88
2023/04/25 14:01:53;;;;;;;;;;;10.60;99.90;;;;;;5082291;28;20378;-88
2023/04/25 14:04:19;;;;;;;;;;;10.70;99.90;;;;;;5084170;28;20418;-88
2023/04/25 14:06:45;;;;;;;;;;;10.60;99.20;;;;;;5083288;28;19928;-87
2023/04/25 14:09:12;;;;;;;;;;;10.60;99.90;;;;;;5083018;28;19987;-89
2023/04/25 14:11:39;;;;;;;;;;;10.80;99.90;;;;;;5084901;28;19932;-89
2023/04/25 14:14:04;;;;;;;;;;;11.10;99.90;;;;;;5060785;28;19928;-88
2023/04/25 14:16:33;;;;;;;;;;;11.30;99.90;;;;;;5084451;28;19924;-88
2023/04/25 14:19:00;;;;;;;;;;;12.50;99.90;;;;;;5080693;28;19931;-88
2023/04/25 14:21:26;;;;;;;;;;;11.30;99.90;;;;;;5084568;28;19991;-88
2023/04/25 14:23:52;;;;;;;;;;;11.30;99.90;;;;;;5081804;28;19962;-88